Latest Weather Observations for Roebourne Airport

IDW60801

Issued at 10:33 am WST Thursday 25 August 2016 (issued every 30 minutes, with the page automatically refreshed every 10 minutes)

About weather observations | Map of weather stations | Latest weather observations for WA | Other Formats
Station Details ID: 004090 Name: ROEBOURNE AERO Lat: -20.76 Lon: 117.16 Height: 10.7 m
Data from the previous 72 hours. | See also: Recent months at Roebourne Airport
Date/Time
WST
Temp
°C
App
Temp
°C
Dew
Point
°C
Rel
Hum
%
Delta-T
°C
Wind Press
QNH
hPa
Press
MSL
hPa
Rain since
9am
mm
Dir  Spd
km/h
Gust
km/h
Spd
kts
Gust
kts
25/10:30am 25.8 16.8 -2.8 15 12.5 ENE 35 48 19 26 1017.7 1017.6 0.0
25/10:00am 25.4 16.4 -3.1 15 12.4 E 35 44 19 24 1017.8 1017.7 0.0
25/09:30am 24.1 15.6 -1.7 18 11.4 E 33 44 18 24 1017.8 1017.7 0.0
25/09:00am 22.0 14.9 -1.3 21 10.2 E 26 39 14 21 1017.8 1017.7 0.0
25/08:56am 21.8 15.5 -0.8 22 10.0 E 22 39 12 21 1017.8 1017.7 0.0
25/08:30am 19.8 15.4 0.3 27 8.6 ENE 13 17 7 9 1017.5 1017.4 0.0
25/08:00am 17.5 14.0 1.1 33 7.2 NE 9 11 5 6 1017.3 1017.2 0.0
25/07:30am 15.2 12.1 3.4 45 5.4 ENE 9 11 5 6 1016.9 1016.8 0.0
25/07:00am 12.0 7.7 3.5 56 3.8 E 15 15 8 8 1016.6 1016.5 0.0
25/06:30am 9.8 6.4 4.0 67 2.6 E 11 13 6 7 1016.3 1016.2 0.0
25/06:00am 10.8 8.3 4.9 67 2.7 E 7 9 4 5 1015.8 1015.7 0.0
25/05:30am 9.1 7.3 3.5 68 2.4 ENE 2 7 1 4 1015.5 1015.4 0.0
25/05:00am 10.0 6.7 4.8 70 2.3 SSE 11 13 6 7 1015.1 1015.0 0.0
25/04:30am 9.5 6.2 4.5 71 2.2 SSW 11 13 6 7 1014.7 1014.6 0.0
25/04:00am 10.0 6.0 4.8 70 2.3 SSW 15 15 8 8 1014.7 1014.6 0.0
25/03:30am 10.0 7.4 4.2 67 2.6 SW 7 11 4 6 1014.5 1014.4 0.0
25/03:00am 11.0 8.5 4.7 65 2.8 SW 7 9 4 5 1014.7 1014.6 0.0
25/02:30am 12.6 9.6 6.0 64 3.1 SW 11 15 6 8 1014.9 1014.8 0.0
25/02:00am 14.4 10.8 6.7 60 3.7 SW 15 17 8 9 1015.1 1015.0 0.0
25/01:30am 14.4 10.7 6.5 59 3.8 SW 15 15 8 8 1015.2 1015.1 0.0
25/01:00am 14.3 10.7 6.6 60 3.7 SW 15 15 8 8 1015.4 1015.3 0.0
25/12:30am 13.0 10.4 5.9 62 3.3 SSW 9 11 5 6 1015.6 1015.5 0.0
25/12:00am 14.0 10.7 6.6 61 3.6 SW 13 15 7 8 1015.7 1015.6 0.0
 
Date/Time
WST
Temp
°C
App
Temp
°C
Dew
Point
°C
Rel
Hum
%
Delta-T
°C
Wind Press
QNH
hPa
Press
MSL
hPa
Rain since
9am
mm
Dir  Spd
km/h
Gust
km/h
Spd
kts
Gust
kts
24/11:30pm 15.1 11.5 6.9 58 4.0 SW 15 17 8 9 1015.9 1015.8 0.0
24/11:00pm 15.6 12.1 7.1 57 4.2 SW 15 17 8 9 1016.2 1016.1 0.0
24/10:30pm 16.5 13.1 7.7 56 4.4 SW 15 19 8 10 1016.3 1016.2 0.0
24/10:00pm 14.3 10.4 5.4 55 4.2 SW 15 17 8 9 1016.3 1016.2 0.0
24/09:30pm 14.4 12.0 5.2 54 4.3 SW 7 9 4 5 1016.2 1016.1 0.0
24/09:00pm 15.4 13.1 5.0 50 4.9 S 6 9 3 5 1016.1 1016.0 0.0
24/08:30pm 15.5 13.2 4.8 49 5.0 SSW 6 9 3 5 1016.1 1016.0 0.0
24/08:00pm 15.6 14.2 3.4 44 5.6 CALM 0 0 0 0 1015.9 1015.8 0.0
24/07:30pm 16.9 15.3 4.3 43 5.9 WNW 2 6 1 3 1015.8 1015.7 0.0
24/07:00pm 19.2 17.0 6.0 42 6.5 NNW 7 9 4 5 1015.7 1015.6 0.0
24/06:30pm 19.7 16.6 5.7 40 6.9 NNW 11 13 6 7 1015.4 1015.3 0.0
24/06:00pm 21.4 18.3 5.7 36 7.8 N 11 13 6 7 1015.3 1015.2 0.0
24/05:30pm 22.6 18.7 5.5 33 8.6 NNE 15 20 8 11 1015.0 1014.9 0.0
24/05:00pm 23.6 19.2 5.0 30 9.3 N 17 20 9 11 1014.6 1014.5 0.0
24/04:30pm 24.3 20.0 5.1 29 9.7 NNE 17 20 9 11 1014.3 1014.2 0.0
24/04:00pm 24.8 19.9 5.1 28 9.9 NNE 20 26 11 14 1014.2 1014.1 0.0
24/03:30pm 24.7 19.5 3.4 25 10.4 NNE 20 30 11 16 1014.1 1014.0 0.0
24/03:00pm 24.9 19.1 4.6 27 10.2 N 24 32 13 17 1014.0 1013.9 0.0
24/02:30pm 24.5 18.7 4.3 27 10.0 NNE 24 33 13 18 1014.1 1014.0 0.0
24/02:00pm 25.2 18.8 5.4 28 10.1 NNE 28 37 15 20 1014.5 1014.4 0.0
24/01:30pm 25.7 19.2 2.4 22 11.3 NE 26 35 14 19 1015.0 1014.9 0.0
24/01:00pm 25.4 19.2 2.2 22 11.1 NE 24 43 13 23 1015.5 1015.4 0.0
24/12:30pm 25.0 18.3 3.6 25 10.5 NE 28 37 15 20 1015.9 1015.8 0.0
24/12:00pm 25.2 18.2 2.0 22 11.1 NE 28 35 15 19 1016.3 1016.2 0.0
24/11:30am 24.4 16.5 2.5 24 10.5 ENE 33 44 18 24 1016.5 1016.4 0.0
24/11:00am 24.2 16.3 1.2 22 10.7 E 32 43 17 23 1017.1 1017.0 0.0
24/10:30am 23.6 15.5 1.3 23 10.4 E 33 44 18 24 1017.5 1017.4 0.0
24/10:00am 23.0 14.6 1.4 24 10.0 E 35 46 19 25 1017.6 1017.5 0.0
24/09:30am 22.2 14.2 1.8 26 9.5 ESE 33 43 18 23 1017.5 1017.4 0.0
24/09:00am 21.0 13.0 1.8 28 8.8 ESE 33 43 18 23 1017.6 1017.5 0.0
24/08:30am 19.4 11.4 1.4 30 8.1 ESE 33 43 18 23 1017.6 1017.5 0.0
24/08:00am 18.4 11.2 1.0 31 7.7 ESE 28 41 15 22 1017.4 1017.3 0.0
24/07:30am 16.9 10.4 0.1 32 7.2 ESE 24 32 13 17 1017.1 1017.0 0.0
24/07:00am 14.8 9.2 -0.1 36 6.3 ESE 19 22 10 12 1016.8 1016.7 0.0
24/06:30am 12.9 7.8 0.6 43 5.2 ESE 17 22 9 12 1016.5 1016.4 0.0
24/06:00am 8.0 4.6 2.0 66 2.5 SE 9 13 5 7 1016.2 1016.1 0.0
24/05:30am 7.4 5.6 1.5 66 2.4 CALM 0 0 0 0 1016.0 1015.9 0.0
24/05:00am 8.7 6.9 1.1 59 3.1 CALM 0 0 0 0 1015.6 1015.5 0.0
24/04:30am 8.6 6.8 1.5 61 2.9 CALM 0 0 0 0 1015.4 1015.3 0.0
24/04:00am 9.0 7.3 2.1 62 2.9 CALM 0 0 0 0 1015.2 1015.1 0.0
24/03:30am 9.2 7.5 1.9 60 3.0 CALM 0 0 0 0 1015.1 1015.0 0.0
24/03:00am 10.0 8.4 2.4 59 3.2 CALM 0 0 0 0 1015.0 1014.9 0.0
24/02:30am 11.7 8.5 3.2 56 3.7 SW 9 11 5 6 1015.1 1015.0 0.0
24/02:00am 13.0 9.2 3.7 53 4.2 SW 13 15 7 8 1015.2 1015.1 0.0
24/01:30am 13.4 9.6 4.0 53 4.3 SW 13 15 7 8 1015.3 1015.2 0.0
24/01:00am 13.4 9.6 4.0 53 4.3 SW 13 13 7 7 1015.3 1015.2 0.0
24/12:30am 12.8 9.4 4.0 55 4.0 S 11 15 6 8 1015.5 1015.4 0.0
24/12:00am 12.8 9.3 3.7 54 4.1 SW 11 15 6 8 1015.6 1015.5 0.0
 
Date/Time
WST
Temp
°C
App
Temp
°C
Dew
Point
°C
Rel
Hum
%
Delta-T
°C
Wind Press
QNH
hPa
Press
MSL
hPa
Rain since
9am
mm
Dir  Spd
km/h
Gust
km/h
Spd
kts
Gust
kts
23/11:30pm 12.8 8.9 3.2 52 4.3 SSW 13 15 7 8 1015.5 1015.4 0.0
23/11:00pm 14.4 10.9 3.5 48 4.9 SW 11 15 6 8 1015.8 1015.7 0.0
23/10:30pm 14.7 10.8 3.5 47 5.1 SSW 13 15 7 8 1015.8 1015.7 0.0
23/10:00pm 15.1 11.2 3.3 45 5.3 SW 13 17 7 9 1015.8 1015.7 0.0
23/09:30pm 16.8 13.1 4.5 44 5.8 SW 13 17 7 9 1015.7 1015.6 0.0
23/09:00pm 18.2 14.3 5.4 43 6.2 SW 15 20 8 11 1015.5 1015.4 0.0
23/08:30pm 15.8 12.9 2.6 41 5.9 SSE 7 7 4 4 1015.1 1015.0 0.0
23/08:00pm 15.9 12.3 -2.1 29 7.3 ESE 7 9 4 5 1014.9 1014.8 0.0
23/07:30pm 17.1 13.1 -2.0 27 7.9 E 9 11 5 6 1014.5 1014.4 0.0
23/07:00pm 18.1 14.1 -2.2 25 8.4 E 9 11 5 6 1014.1 1014.0 0.0
23/06:30pm 19.3 15.0 -1.7 24 8.9 E 11 11 6 6 1013.7 1013.6 0.0
23/06:00pm 21.6 17.2 -2.3 20 10.2 E 11 13 6 7 1013.3 1013.3 0.0
23/05:30pm 23.5 18.4 -2.2 18 11.2 ESE 15 20 8 11 1013.0 1013.0 0.0
23/05:00pm 24.1 19.3 -2.4 17 11.6 SE 13 20 7 11 1013.1 1013.1 0.0
23/04:30pm 24.8 19.7 -1.9 17 11.8 SSE 15 22 8 12 1013.0 1013.0 0.0
23/04:00pm 24.5 19.0 -2.1 17 11.7 ESE 17 30 9 16 1012.9 1012.9 0.0
23/03:30pm 24.3 18.4 -2.3 17 11.7 ESE 19 28 10 15 1012.8 1012.8 0.0
23/03:00pm 24.4 19.0 -1.4 18 11.5 ESE 17 26 9 14 1012.9 1012.9 0.0
23/02:30pm 24.6 19.2 -1.3 18 11.6 ESE 17 26 9 14 1013.1 1013.1 0.0
23/02:00pm 24.2 18.4 -1.6 18 11.4 SE 19 35 10 19 1013.6 1013.5 0.0
23/01:30pm 23.8 17.8 -1.2 19 11.1 ESE 20 37 11 20 1014.0 1013.9 0.0
23/01:00pm 23.6 17.0 -0.6 20 10.9 SE 24 35 13 19 1014.4 1014.3 0.0
23/12:30pm 22.8 16.6 -0.6 21 10.5 ESE 22 35 12 19 1015.0 1014.9 0.0
23/12:00pm 21.8 14.7 -1.5 21 10.1 ESE 26 35 14 19 1015.6 1015.5 0.0
23/11:30am 22.0 14.9 -1.3 21 10.2 SE 26 43 14 23 1016.3 1016.2 0.0
23/11:00am 21.0 13.6 -0.9 23 9.6 ESE 28 41 15 22 1016.9 1016.8 0.0
23/10:30am 20.3 13.0 -0.3 25 9.1 ESE 28 39 15 21 1017.1 1017.0 0.0
23/10:00am 19.8 12.1 -0.2 26 8.8 ESE 30 44 16 24 1017.4 1017.3 0.0
23/09:30am 19.3 11.1 -0.7 26 8.7 ESE 32 46 17 25 1017.4 1017.3 0.0
23/09:00am 18.6 10.2 -1.3 26 8.4 ESE 33 44 18 24 1017.3 1017.2 0.0
23/08:30am 17.9 9.1 -1.3 27 8.1 ESE 35 46 19 25 1017.0 1016.9 0.0
23/08:00am 17.4 9.8 -1.8 27 8.0 ESE 28 43 15 23 1016.9 1016.8 0.0
23/07:30am 16.4 9.8 -3.1 26 7.8 SE 22 28 12 15 1016.7 1016.6 0.0
23/07:00am 14.8 9.1 -3.5 28 7.1 SE 17 24 9 13 1016.3 1016.2 0.0
23/06:30am 12.0 6.3 -3.8 33 5.9 SSE 17 20 9 11 1015.9 1015.8 0.0
23/06:00am 12.9 7.1 -4.2 30 6.4 SSE 17 20 9 11 1015.5 1015.4 0.0
23/05:30am 14.3 8.1 -4.4 27 7.1 SSE 19 24 10 13 1015.4 1015.3 0.0
23/05:00am 14.2 8.0 -5.0 26 7.2 SSE 19 24 10 13 1014.9 1014.8 0.0
23/04:30am 15.0 8.7 -5.4 24 7.7 SSE 19 24 10 13 1014.8 1014.7 0.0
23/04:00am 15.0 8.6 -5.4 24 7.6 SSE 20 24 11 13 1014.7 1014.6 0.0
23/03:30am 15.4 8.2 -5.6 23 7.9 SSE 24 28 13 15 1014.5 1014.4 0.0
23/03:00am 16.1 9.3 -5.0 23 8.1 SSE 22 30 12 16 1014.5 1014.4 0.0
23/02:30am 13.4 7.2 -4.7 28 6.8 S 19 20 10 11 1014.6 1014.5 0.0
23/02:00am 13.6 7.2 -4.5 28 6.8 S 20 20 11 11 1014.6 1014.5 0.0
23/01:30am 13.9 8.1 -4.3 28 6.9 S 17 20 9 11 1014.6 1014.5 0.0
23/01:00am 16.7 9.7 -3.4 25 8.0 S 24 28 13 15 1014.3 1014.2 0.0
23/12:30am 17.4 11.4 -3.4 24 8.4 S 19 28 10 15 1014.2 1014.1 0.0
23/12:00am 17.9 10.9 -3.5 23 8.6 S 24 28 13 15 1014.4 1014.3 0.0
 
Date/Time
WST
Temp
°C
App
Temp
°C
Dew
Point
°C
Rel
Hum
%
Delta-T
°C
Wind Press
QNH
hPa
Press
MSL
hPa
Rain since
9am
mm
Dir  Spd
km/h
Gust
km/h
Spd
kts
Gust
kts
22/11:30pm 18.6 11.6 -3.5 22 9.0 S 24 32 13 17 1014.4 1014.3 0.0
22/11:00pm 19.4 12.0 -3.5 21 9.4 S 26 33 14 18 1014.2 1014.1 0.0
22/10:30pm 19.8 12.5 -3.1 21 9.5 S 26 33 14 18 1014.2 1014.1 0.0
22/10:00pm 19.9 13.5 -1.8 23 9.2 S 22 28 12 15 1014.2 1014.1 0.0
22/09:30pm 20.4 14.0 -1.4 23 9.4 S 22 28 12 15 1014.2 1014.1 0.0
22/09:00pm 20.9 14.6 -1.0 23 9.5 SSW 22 28 12 15 1014.1 1014.0 0.0
22/08:30pm 21.6 14.8 -1.6 21 10.1 S 24 32 13 17 1013.8 1013.7 0.0
22/08:00pm 22.2 15.5 -1.1 21 10.3 SSW 24 32 13 17 1013.2 1013.2 0.0
22/07:30pm 22.4 16.8 -0.3 22 10.2 SSW 19 26 10 14 1012.6 1012.6 0.0
22/07:00pm 23.3 17.1 -0.2 21 10.6 SSW 22 32 12 17 1012.0 1012.0 0.0
22/06:30pm 23.8 16.8 -0.5 20 11.0 SSW 26 32 14 17 1011.7 1011.7 0.0
22/06:00pm 24.7 17.6 -1.2 18 11.6 SSW 26 35 14 19 1011.4 1011.4 0.0
22/05:30pm 25.8 17.9 -1.9 16 12.4 S 30 35 16 19 1010.9 1010.9 0.0
22/05:00pm 26.7 19.2 -1.2 16 12.7 SSW 28 35 15 19 1010.7 1010.7 0.0
22/04:30pm 27.5 20.4 -1.4 15 13.2 SSW 26 35 14 19 1010.3 1010.3 0.0
22/04:00pm 27.8 20.8 -0.3 16 13.2 S 26 35 14 19 1010.2 1010.2 0.0
22/03:30pm 28.2 21.1 -0.9 15 13.5 SSW 26 35 14 19 1010.1 1010.1 0.0
22/03:00pm 28.4 21.9 -2.6 13 14.0 SSW 22 41 12 22 1010.3 1010.3 0.0
22/02:30pm 28.5 22.2 -3.6 12 14.2 SSW 20 35 11 19 1010.4 1010.4 0.0
22/02:00pm 29.3 22.5 -5.4 10 15.0 SSW 22 32 12 17 1010.5 1010.5 0.0
22/01:30pm 28.6 22.0 -7.3 9 14.9 S 20 33 11 18 1010.8 1010.8 0.0
22/01:00pm 28.2 20.5 -6.3 10 14.5 SSW 26 39 14 21 1011.2 1011.2 0.0
22/12:30pm 28.1 20.3 -7.7 9 14.7 SSW 26 43 14 23 1011.7 1011.7 0.0
22/12:00pm 28.0 20.3 -6.4 10 14.4 SSW 26 39 14 21 1012.0 1012.0 0.0
22/11:30am 28.1 21.3 -5.1 11 14.3 SSW 22 32 12 17 1012.5 1012.5 0.0
22/11:00am 26.8 19.5 -6.1 11 13.7 S 24 35 13 19 1012.7 1012.7 0.0

Other Formats:

Comma delimited format used in spreadsheet applications
http://www.bom.gov.au/fwo/IDW60801/IDW60801.94308.axf

JavaScript Object Notation format (JSON) in row-major order
http://www.bom.gov.au/fwo/IDW60801/IDW60801.94308.json